Time;durP1;ratioP1;P1;durP2;ratioP2;P2;SDS_P1;SDS_P2;PMS_P1;PMS_P2;Temp;Humidity;BMP_temperature;BMP_pressure;BME280_temperature;BME280_humidity;BME280_pressure;Samples;Min_cycle;Max_cycle;Signal;HPM_P1;HPM_P2
2023/12/15 00:00:16;;;;;;;199.00;47.08;;;;;;;;;;5107262;27;20035;-79
2023/12/15 00:02:42;;;;;;;246.82;50.20;;;;;;;;;;5125083;27;20039;-79
2023/12/15 00:05:09;;;;;;;219.25;48.10;;;;;;;;;;5125523;27;20153;-79
2023/12/15 00:07:35;;;;;;;205.63;47.47;;;;;;;;;;5125296;27;20073;-79
2023/12/15 00:10:01;;;;;;;264.10;52.85;;;;;;;;;;5111512;27;20471;-80
2023/12/15 00:12:28;;;;;;;236.27;51.83;;;;;;;;;;5123056;27;20058;-79
2023/12/15 00:14:54;;;;;;;234.73;51.58;;;;;;;;;;5126828;27;20134;-79
2023/12/15 00:17:20;;;;;;;238.18;53.80;;;;;;;;;;5091241;27;20039;-79
2023/12/15 00:19:46;;;;;;;250.23;52.03;;;;;;;;;;5090694;27;20066;-79
2023/12/15 00:22:12;;;;;;;218.45;51.35;;;;;;;;;;5090610;27;20805;-79
2023/12/15 00:24:38;;;;;;;212.57;49.63;;;;;;;;;;5090474;27;20055;-79
2023/12/15 00:27:04;;;;;;;204.82;48.20;;;;;;;;;;5090882;27;20383;-79
2023/12/15 00:29:30;;;;;;;220.98;54.47;;;;;;;;;;5107967;27;20076;-79
2023/12/15 00:31:57;;;;;;;194.95;49.97;;;;;;;;;;5107496;27;20054;-79
2023/12/15 00:34:23;;;;;;;200.80;50.97;;;;;;;;;;5092001;27;20123;-79
2023/12/15 00:36:49;;;;;;;207.02;52.13;;;;;;;;;;5111529;27;20047;-78
2023/12/15 00:39:15;;;;;;;231.23;55.15;;;;;;;;;;5097463;27;20366;-78
2023/12/15 00:41:41;;;;;;;254.25;55.72;;;;;;;;;;5096208;27;20061;-79
2023/12/15 00:44:07;;;;;;;199.23;50.08;;;;;;;;;;5094664;27;20085;-79
2023/12/15 00:46:33;;;;;;;240.73;56.97;;;;;;;;;;5095190;27;20087;-79
2023/12/15 00:48:59;;;;;;;228.07;54.20;;;;;;;;;;5112036;27;20031;-79
2023/12/15 00:51:26;;;;;;;216.15;54.15;;;;;;;;;;5091849;27;20035;-79
2023/12/15 00:53:52;;;;;;;212.32;54.30;;;;;;;;;;5108017;27;20047;-79
2023/12/15 00:56:18;;;;;;;217.10;52.35;;;;;;;;;;5090296;27;20042;-80
2023/12/15 00:58:44;;;;;;;245.07;56.47;;;;;;;;;;5090815;27;20058;-79
2023/12/15 01:01:10;;;;;;;246.27;57.33;;;;;;;;;;5108060;27;20051;-80
2023/12/15 01:03:37;;;;;;;238.05;56.35;;;;;;;;;;5107631;27;20050;-80
2023/12/15 01:06:03;;;;;;;197.00;50.17;;;5.10;99.90;;;;;;5091394;27;20050;-79
2023/12/15 01:08:29;;;;;;;204.75;50.97;;;;;;;;;;5095007;27;20536;-80
2023/12/15 01:10:55;;;;;;;216.18;53.13;;;;;;;;;;5108622;27;20504;-80
2023/12/15 01:13:22;;;;;;;218.45;53.00;;;;;;;;;;5107106;27;20126;-81
2023/12/15 01:15:48;;;;;;;210.63;54.17;;;;;;;;;;5088991;27;20035;-80
2023/12/15 01:18:14;;;;;;;213.63;53.05;;;;;;;;;;5107033;27;20451;-82
2023/12/15 01:20:40;;;;;;;223.07;53.50;;;;;;;;;;5089430;27;20043;-80
2023/12/15 01:23:06;;;;;;;235.55;54.40;;;;;;;;;;5107151;27;20399;-80
2023/12/15 01:25:32;;;;;;;247.18;57.92;;;;;;;;;;5089598;27;20464;-80
2023/12/15 01:27:58;;;;;;;232.27;51.67;;;;;;;;;;5089793;27;20106;-80
2023/12/15 01:30:24;;;;;;;248.45;54.92;;;;;;;;;;5105998;27;20042;-81
2023/12/15 01:32:50;;;;;;;260.98;56.72;;;;;;;;;;5106211;27;20079;-82
2023/12/15 01:35:17;;;;;;;235.40;53.42;;;;;;;;;;5088674;27;20047;-81
2023/12/15 01:37:43;;;;;;;250.23;54.70;;;;;;;;;;5088709;27;20043;-81
2023/12/15 01:40:09;;;;;;;222.95;51.45;;;4.50;99.90;;;;;;5088377;27;20051;-80
2023/12/15 01:42:35;;;;;;;241.35;56.05;;;;;;;;;;5088168;27;20085;-81
2023/12/15 01:45:01;;;;;;;266.77;57.45;;;;;;;;;;5088228;27;20126;-81
2023/12/15 01:47:27;;;;;;;240.70;54.03;;;;;;;;;;5088661;27;20147;-81
2023/12/15 01:49:54;;;;;;;255.30;57.30;;;;;;;;;;5105815;27;20069;-81
2023/12/15 01:52:23;;;;;;;244.63;55.08;;;;;;;;;;5089055;27;20099;-81
2023/12/15 01:54:49;;;;;;;264.05;56.38;;;;;;;;;;5105838;28;20503;-80
2023/12/15 01:57:15;;;;;;;260.92;56.83;;;;;;;;;;5105709;27;20410;-80
2023/12/15 01:59:42;;;;;;;243.18;55.63;;;;;;;;;;5088442;27;20047;-81
2023/12/15 02:02:09;;;;;;;243.40;53.28;;;;;;;;;;5088488;27;20080;-81
2023/12/15 02:04:35;;;;;;;239.00;54.20;;;;;;;;;;5088033;28;20504;-81
2023/12/15 02:07:01;;;;;;;271.38;58.88;;;;;;;;;;5104275;28;20043;-82
2023/12/15 02:09:27;;;;;;;270.35;57.28;;;;;;;;;;5088187;28;20046;-82
2023/12/15 02:11:53;;;;;;;243.88;55.88;;;;;;;;;;5104803;27;20039;-81
2023/12/15 02:14:19;;;;;;;264.77;58.60;;;;;;;;;;5104897;28;20079;-80
2023/12/15 02:16:45;;;;;;;267.65;57.53;;;;;;;;;;5088089;28;20043;-81
2023/12/15 02:19:11;;;;;;;301.27;61.78;;;;;;;;;;5087956;28;20085;-81
2023/12/15 02:21:38;;;;;;;283.50;62.17;;;;;;;;;;5088294;28;20054;-81
2023/12/15 02:24:04;;;;;;;294.70;62.13;;;5.80;99.90;;;;;;5088107;27;20043;-81
2023/12/15 02:26:30;;;;;;;276.85;59.28;;;;;;;;;;5105073;28;20039;-81
2023/12/15 02:28:56;;;;;;;261.42;56.72;;;;;;;;;;5105089;28;20074;-81
2023/12/15 02:31:23;;;;;;;273.00;57.63;;;;;;;;;;5104803;28;20486;-81
2023/12/15 02:33:49;;;;;;;257.20;54.22;;;;;;;;;;5105044;27;20816;-81
2023/12/15 02:36:22;;;;;;;263.70;55.97;;;;;;;;;;5088225;28;20045;-81
2023/12/15 02:38:48;;;;;;;254.57;54.20;;;;;;;;;;5089193;27;20075;-81
2023/12/15 02:41:14;;;;;;;274.20;56.78;;;;;;;;;;5108717;28;20074;-82
2023/12/15 02:43:41;;;;;;;254.50;56.05;;;;;;;;;;5096181;27;20039;-80
2023/12/15 02:46:13;;;;;;;264.70;57.42;;;;;;;;;;5113712;28;20043;-82
2023/12/15 02:48:42;;;;;;;285.80;59.50;;;;;;;;;;5096148;28;20070;-81
2023/12/15 02:51:09;;;;;;;249.35;52.78;;;;;;;;;;5093123;27;20046;-81
2023/12/15 02:53:35;;;;;;;261.88;54.75;;;;;;;;;;5089975;28;20043;-81
2023/12/15 02:56:01;;;;;;;258.13;53.97;;;;;;;;;;5104612;28;20043;-81
2023/12/15 02:58:27;;;;;;;261.08;52.85;;;;;;;;;;5104258;28;20130;-81
2023/12/15 03:00:53;;;;;;;258.20;54.47;;;;;;;;;;5088111;28;20082;-79
2023/12/15 03:03:20;;;;;;;282.45;57.95;;;;;;;;;;5105003;28;20039;-81
2023/12/15 03:05:46;;;;;;;309.52;57.90;;;;;;;;;;5088669;28;20051;-81
2023/12/15 03:08:12;;;;;;;293.23;55.88;;;6.20;99.90;;;;;;5089054;28;20039;-81
2023/12/15 03:10:38;;;;;;;304.40;55.97;;;;;;;;;;5105990;28;20049;-81
2023/12/15 03:13:04;;;;;;;303.63;55.30;;;;;;;;;;5089035;28;20538;-81
2023/12/15 03:15:30;;;;;;;296.73;56.03;;;;;;;;;;5123552;27;20755;-81
2023/12/15 03:17:56;;;;;;;307.02;58.83;;;;;;;;;;5086851;27;20074;-81
2023/12/15 03:20:22;;;;;;;310.42;60.35;;;;;;;;;;5107162;27;20684;-80
2023/12/15 03:22:49;;;;;;;323.13;62.00;;;;;;;;;;5108175;27;20601;-80
2023/12/15 03:25:17;;;;;;;282.35;54.63;;;;;;;;;;5091019;27;20082;-80
2023/12/15 03:27:43;;;;;;;287.88;56.60;;;;;;;;;;5107861;27;20384;-81
2023/12/15 03:30:10;;;;;;;280.40;54.97;;;;;;;;;;5091250;27;20108;-82
2023/12/15 03:32:36;;;;;;;283.02;52.30;;;;;;;;;;5108167;27;20396;-81
2023/12/15 03:35:02;;;;;;;293.35;54.13;;;;;;;;;;5107870;27;20471;-81
2023/12/15 03:37:28;;;;;;;275.15;54.03;;;;;;;;;;5108271;27;20050;-80
2023/12/15 03:39:54;;;;;;;288.27;53.90;;;;;;;;;;5091045;27;20054;-80
2023/12/15 03:42:20;;;;;;;274.13;53.28;;;;;;;;;;5107859;27;20039;-80
2023/12/15 03:44:47;;;;;;;264.17;53.70;;;;;;;;;;5107883;27;20043;-81
2023/12/15 03:47:13;;;;;;;300.38;53.90;;;;;;;;;;5090652;27;20473;-80
2023/12/15 03:49:39;;;;;;;295.95;57.03;;;;;;;;;;5090632;27;20042;-82
2023/12/15 03:52:05;;;;;;;291.65;57.30;;;;;;;;;;5090574;27;20047;-80
2023/12/15 03:54:31;;;;;;;278.98;53.60;;;;;;;;;;5090286;27;20058;-81
2023/12/15 03:56:58;;;;;;;273.77;55.08;;;;;;;;;;5107422;27;20079;-80
2023/12/15 03:59:24;;;;;;;312.35;57.42;;;;;;;;;;5107215;27;20039;-81
2023/12/15 04:01:51;;;;;;;309.10;56.97;;;;;;;;;;5090717;27;20580;-81
2023/12/15 04:04:18;;;;;;;314.30;56.67;;;;;;;;;;5090911;27;20043;-81
2023/12/15 04:06:44;;;;;;;289.95;54.22;;;;;;;;;;5091111;27;20093;-81
2023/12/15 04:09:10;;;;;;;275.45;53.55;;;;;;;;;;5107304;27;20042;-82
2023/12/15 04:11:37;;;;;;;271.45;55.25;;;;;;;;;;5090478;27;20280;-80
2023/12/15 04:14:04;;;;;;;257.50;54.17;;;;;;;;;;5089990;27;20043;-80
2023/12/15 04:16:36;;;;;;;287.50;54.80;;;6.20;99.90;;;;;;5089945;27;20491;-80
2023/12/15 04:19:02;;;;;;;245.25;52.92;;;;;;;;;;5089408;27;20582;-81
2023/12/15 04:21:30;;;;;;;275.35;53.80;;;;;;;;;;5090284;27;20039;-81
2023/12/15 04:23:57;;;;;;;263.38;53.83;;;;;;;;;;5090067;27;20153;-81
2023/12/15 04:26:23;;;;;;;272.63;50.35;;;;;;;;;;5089366;27;20038;-80
2023/12/15 04:28:49;;;;;;;266.05;53.45;;;;;;;;;;5092911;27;20042;-79
2023/12/15 04:31:15;;;;;;;254.10;52.42;;;;;;;;;;5091967;27;20039;-81
2023/12/15 04:33:41;;;;;;;267.70;54.60;;;;;;;;;;5106431;27;20035;-81
2023/12/15 04:36:08;;;;;;;256.55;52.47;;;5.90;99.90;;;;;;5125145;27;20228;-81
2023/12/15 04:38:34;;;;;;;271.73;55.55;;;;;;;;;;5106725;27;20144;-81
2023/12/15 04:41:01;;;;;;;258.13;51.35;;;;;;;;;;5089272;27;20486;-81
2023/12/15 04:43:27;;;;;;;249.77;50.17;;;;;;;;;;5106513;27;20043;-81
2023/12/15 04:45:55;;;;;;;244.15;49.40;;;;;;;;;;5089645;27;20149;-81
2023/12/15 04:48:21;;;;;;;227.48;45.80;;;;;;;;;;5112615;27;20042;-81
2023/12/15 04:50:47;;;;;;;240.93;53.83;;;;;;;;;;5110673;27;20449;-81
2023/12/15 04:53:13;;;;;;;238.52;51.05;;;;;;;;;;5110291;27;20042;-81
2023/12/15 04:55:39;;;;;;;240.63;50.80;;;;;;;;;;5110080;27;20074;-81
2023/12/15 04:58:06;;;;;;;248.48;48.28;;;6.10;99.90;;;;;;5109959;27;20046;-81
2023/12/15 05:00:32;;;;;;;247.68;49.67;;;;;;;;;;5110058;27;20042;-81
2023/12/15 05:02:59;;;;;;;260.30;50.83;;;;;;;;;;5109669;27;20042;-81
2023/12/15 05:05:25;;;;;;;247.43;51.85;;;;;;;;;;5126433;27;20134;-82
2023/12/15 05:07:51;;;;;;;255.00;52.75;;;;;;;;;;5109779;27;20038;-81
2023/12/15 05:10:17;;;;;;;234.07;48.97;;;;;;;;;;5109734;27;20038;-81
2023/12/15 05:12:44;;;;;;;278.73;52.05;;;;;;;;;;5109753;27;20530;-81
2023/12/15 05:15:10;;;;;;;234.60;50.78;;;;;;;;;;5127108;27;20558;-81
2023/12/15 05:17:37;;;;;;;218.45;46.95;;;;;;;;;;5109503;27;20039;-81
2023/12/15 05:20:06;;;;;;;219.15;49.42;;;;;;;;;;5108787;27;20050;-81
2023/12/15 05:22:32;;;;;;;231.48;49.65;;;;;;;;;;5109989;27;20046;-82
2023/12/15 05:24:58;;;;;;;248.05;50.05;;;;;;;;;;5126289;27;20054;-82
2023/12/15 05:27:25;;;;;;;251.57;49.03;;;;;;;;;;5109251;27;20490;-81
2023/12/15 05:29:50;;;;;;;223.70;48.92;;;6.40;99.90;;;;;;5108782;27;20091;-82
2023/12/15 05:32:17;;;;;;;208.02;45.55;;;;;;;;;;5109083;27;20042;-81
2023/12/15 05:34:43;;;;;;;217.63;47.58;;;;;;;;;;5108536;27;20046;-82
2023/12/15 05:37:10;;;;;;;209.82;46.53;;;;;;;;;;5107743;27;20049;-82
2023/12/15 05:39:36;;;;;;;215.77;46.13;;;;;;;;;;5125288;27;20043;-81
2023/12/15 05:42:02;;;;;;;223.40;45.63;;;;;;;;;;5106280;27;20043;-80
2023/12/15 05:44:29;;;;;;;204.15;44.72;;;;;;;;;;5107045;27;20523;-81
2023/12/15 05:46:55;;;;;;;196.77;43.85;;;;;;;;;;5123915;27;20594;-81
2023/12/15 05:49:22;;;;;;;201.68;43.92;;;;;;;;;;5123805;27;20601;-82
2023/12/15 05:51:48;;;;;;;181.80;41.53;;;;;;;;;;5106876;27;20772;-82
2023/12/15 05:54:15;;;;;;;182.40;43.15;;;;;;;;;;5107261;27;20792;-82
2023/12/15 05:56:41;;;;;;;176.43;43.70;;;;;;;;;;5108149;27;20146;-81
2023/12/15 05:59:08;;;;;;;176.85;39.60;;;;;;;;;;5108961;27;20046;-81
2023/12/15 06:01:34;;;;;;;180.45;40.13;;;;;;;;;;5108859;27;20048;-82
2023/12/15 06:04:00;;;;;;;185.48;41.42;;;;;;;;;;5108717;27;20053;-81
2023/12/15 06:06:26;;;;;;;212.20;43.85;;;;;;;;;;5109273;27;20042;-80
2023/12/15 06:08:53;;;;;;;185.40;41.08;;;;;;;;;;5109282;27;20092;-81
2023/12/15 06:11:19;;;;;;;208.52;42.80;;;;;;;;;;5109418;27;20581;-81
2023/12/15 06:13:45;;;;;;;170.93;39.85;;;;;;;;;;5109320;27;20074;-81
2023/12/15 06:16:18;;;;;;;186.13;41.88;;;;;;;;;;5126248;27;20042;-81
2023/12/15 06:18:44;;;;;;;178.88;38.92;;;;;;;;;;5126040;27;20041;-81
2023/12/15 06:21:19;;;;;;;175.07;38.13;;;;;;;;;;5125964;27;20261;-82
2023/12/15 06:23:48;;;;;;;187.15;39.60;;;;;;;;;;5126127;27;20046;-82
2023/12/15 06:26:26;;;;;;;153.52;35.83;;;5.20;99.90;;;;;;5125509;27;20043;-81
2023/12/15 06:28:53;;;;;;;173.98;37.42;;;;;;;;;;5106626;27;20039;-80
2023/12/15 06:31:19;;;;;;;169.85;37.28;;;;;;;;;;5088654;28;20039;-81
2023/12/15 06:33:46;;;;;;;169.75;35.17;;;;;;;;;;5088248;28;20043;-82
2023/12/15 06:36:12;;;;;;;162.57;36.92;;;;;;;;;;5088065;28;20043;-81
2023/12/15 06:38:42;;;;;;;163.30;37.50;;;;;;;;;;5088393;28;20035;-80
2023/12/15 06:41:12;;;;;;;183.40;39.83;;;;;;;;;;5087681;28;20111;-81
2023/12/15 06:43:39;;;;;;;197.05;42.85;;;;;;;;;;5087935;28;20118;-82
2023/12/15 06:46:05;;;;;;;206.90;44.70;;;;;;;;;;5104699;28;20039;-81
2023/12/15 06:48:31;;;;;;;210.85;43.10;;;;;;;;;;5106830;28;20039;-81
2023/12/15 06:50:58;;;;;;;210.05;44.63;;;;;;;;;;5093440;27;20043;-81
2023/12/15 06:53:23;;;;;;;207.48;45.17;;;5.20;99.90;;;;;;5114523;27;20036;-81
2023/12/15 06:55:49;;;;;;;227.55;47.15;;;;;;;;;;5100554;27;20047;-79
2023/12/15 06:58:16;;;;;;;210.50;41.17;;;;;;;;;;5100681;27;20053;-82
2023/12/15 07:00:42;;;;;;;243.02;46.60;;;;;;;;;;5096380;27;20083;-82
2023/12/15 07:03:09;;;;;;;209.35;44.05;;;;;;;;;;5093865;27;20046;-82
2023/12/15 07:05:35;;;;;;;194.50;41.08;;;;;;;;;;5092143;27;20043;-81
2023/12/15 07:08:04;;;;;;;212.38;40.17;;;;;;;;;;5091884;27;20046;-82
2023/12/15 07:10:31;;;;;;;224.70;42.83;;;;;;;;;;5109047;27;20043;-82
2023/12/15 07:12:57;;;;;;;190.52;42.20;;;;;;;;;;5091801;27;20518;-82
2023/12/15 07:15:28;;;;;;;166.43;37.20;;;;;;;;;;5109476;27;20316;-81
2023/12/15 07:17:54;;;;;;;175.80;37.17;;;;;;;;;;5092714;27;20050;-81
2023/12/15 07:20:21;;;;;;;185.23;37.08;;;;;;;;;;5108830;27;20119;-81
2023/12/15 07:22:47;;;;;;;197.95;37.55;;;;;;;;;;5108327;27;20043;-82
2023/12/15 07:25:14;;;;;;;180.80;36.17;;;;;;;;;;5091162;27;20043;-81
2023/12/15 07:27:43;;;;;;;189.00;35.05;;;;;;;;;;5091045;27;20031;-81
2023/12/15 07:30:09;;;;;;;162.27;32.08;;;;;;;;;;5090412;27;20444;-82
2023/12/15 07:32:35;;;;;;;153.40;33.13;;;;;;;;;;5107841;27;20596;-82
2023/12/15 07:35:03;;;;;;;161.10;35.95;;;;;;;;;;5107882;27;20156;-82
2023/12/15 07:37:30;;;;;;;164.45;36.03;;;;;;;;;;5090775;27;20150;-82
2023/12/15 07:39:56;;;;;;;135.50;28.30;;;;;;;;;;5090550;27;20075;-81
2023/12/15 07:42:26;;;;;;;149.38;32.55;;;;;;;;;;5107606;27;20046;-82
2023/12/15 07:44:52;;;;;;;156.32;32.63;;;;;;;;;;5090433;27;20048;-81
2023/12/15 07:47:18;;;;;;;160.00;31.52;;;;;;;;;;5108183;27;20039;-80
2023/12/15 07:49:44;;;;;;;151.88;30.48;;;;;;;;;;5107442;27;20043;-81
2023/12/15 07:52:10;;;;;;;146.82;31.38;;;5.30;99.90;;;;;;5090879;27;20043;-81
2023/12/15 07:54:37;;;;;;;157.80;33.58;;;;;;;;;;5107860;27;20099;-80
2023/12/15 07:57:03;;;;;;;162.55;35.28;;;;;;;;;;5090406;27;20766;-81
2023/12/15 07:59:29;;;;;;;145.63;30.08;;;;;;;;;;5090386;27;20055;-80
2023/12/15 08:01:55;;;;;;;140.13;27.75;;;;;;;;;;5107203;27;20579;-81
2023/12/15 08:04:22;;;;;;;146.48;30.85;;;;;;;;;;5089651;28;20047;-83
2023/12/15 08:06:51;;;;;;;142.45;30.25;;;;;;;;;;5091012;27;20754;-81
2023/12/15 08:09:17;;;;;;;133.15;27.65;;;;;;;;;;5107470;27;20047;-81
2023/12/15 08:11:43;;;;;;;156.88;30.00;;;;;;;;;;5090372;27;20034;-81
2023/12/15 08:14:11;;;;;;;139.50;30.10;;;;;;;;;;5091770;27;20042;-82
2023/12/15 08:16:37;;;;;;;152.38;29.95;;;;;;;;;;5098673;27;20107;-80
2023/12/15 08:19:05;;;;;;;148.80;33.20;;;;;;;;;;5103063;27;20590;-81
2023/12/15 08:21:31;;;;;;;137.65;30.35;;;;;;;;;;5099646;27;20511;-80
2023/12/15 08:23:57;;;;;;;139.32;30.23;;;;;;;;;;5098645;27;20051;-81
2023/12/15 08:26:27;;;;;;;143.25;30.85;;;;;;;;;;5100860;27;20467;-81
2023/12/15 08:28:57;;;;;;;130.05;27.27;;;;;;;;;;5100397;27;20054;-82
2023/12/15 08:31:23;;;;;;;145.43;27.88;;;;;;;;;;5098327;27;20483;-81
2023/12/15 08:33:50;;;;;;;118.93;27.80;;;;;;;;;;5099296;27;20037;-80
2023/12/15 08:36:16;;;;;;;106.30;24.33;;;;;;;;;;5116857;27;20084;-82
2023/12/15 08:38:42;;;;;;;136.25;28.90;;;;;;;;;;5115157;27;20027;-82
2023/12/15 08:41:08;;;;;;;111.90;26.00;;;;;;;;;;5099194;27;20380;-82
2023/12/15 08:43:37;;;;;;;107.03;26.17;;;;;;;;;;5109605;27;20488;-82
2023/12/15 08:46:04;;;;;;;110.78;25.85;;;;;;;;;;5089401;27;20510;-82
2023/12/15 08:48:30;;;;;;;103.78;23.35;;;;;;;;;;5089871;27;20043;-81
2023/12/15 08:50:57;;;;;;;113.97;27.25;;;;;;;;;;5107514;27;20050;-82
2023/12/15 08:53:23;;;;;;;109.15;24.17;;;;;;;;;;5107352;27;20267;-81
2023/12/15 08:55:49;;;;;;;113.32;28.50;;;;;;;;;;5126459;27;20043;-82
2023/12/15 08:58:16;;;;;;;88.93;23.27;;;;;;;;;;5090138;27;20054;-81
2023/12/15 09:00:42;;;;;;;105.13;24.77;;;;;;;;;;5106239;27;20483;-82
2023/12/15 09:03:08;;;;;;;103.13;25.13;;;;;;;;;;5088984;27;20039;-82
2023/12/15 09:05:35;;;;;;;101.30;23.98;;;;;;;;;;5107428;27;20094;-81
2023/12/15 09:08:02;;;;;;;96.30;24.60;;;;;;;;;;5121046;27;20066;-82
2023/12/15 09:10:34;;;;;;;108.13;25.65;;;;;;;;;;5123203;27;20695;-82
2023/12/15 09:13:03;;;;;;;86.13;23.50;;;;;;;;;;5105198;27;20065;-81
2023/12/15 09:15:30;;;;;;;90.38;24.00;;;;;;;;;;5125413;27;20039;-82
2023/12/15 09:17:56;;;;;;;87.15;24.10;;;;;;;;;;5125410;27;20487;-82
2023/12/15 09:20:23;;;;;;;87.97;22.20;;;;;;;;;;5107771;27;20121;-82
2023/12/15 09:22:50;;;;;;;87.43;22.65;;;;;;;;;;5124986;27;20070;-82
2023/12/15 09:25:16;;;;;;;98.45;22.83;;;;;;;;;;5098612;27;20087;-81
2023/12/15 09:27:42;;;;;;;92.10;20.67;;;;;;;;;;5101752;27;20035;-82
2023/12/15 09:30:08;;;;;;;75.95;20.13;;;;;;;;;;5097370;27;20420;-82
2023/12/15 09:32:35;;;;;;;76.30;18.10;;;;;;;;;;5116211;27;20039;-82
2023/12/15 09:35:03;;;;;;;68.57;19.48;;;;;;;;;;5113945;27;20042;-82
2023/12/15 09:37:30;;;;;;;81.95;19.30;;;;;;;;;;5096338;27;20117;-82
2023/12/15 09:39:56;;;;;;;79.07;21.73;;;;;;;;;;5101212;27;20035;-81
2023/12/15 09:42:23;;;;;;;71.38;19.80;;;;;;;;;;5118821;27;20042;-82
2023/12/15 09:44:50;;;;;;;79.90;18.55;;;;;;;;;;5121999;27;20513;-83
2023/12/15 09:47:21;;;;;;;71.95;18.83;;;;;;;;;;5097715;27;20046;-81
2023/12/15 09:49:51;;;;;;;77.32;20.45;;;6.90;99.90;;;;;;5096382;27;20496;-81
2023/12/15 09:52:18;;;;;;;76.40;20.88;;;;;;;;;;5089104;27;20043;-81
2023/12/15 09:54:44;;;;;;;82.18;21.73;;;;;;;;;;5088938;27;20046;-82
2023/12/15 09:57:13;;;;;;;94.97;23.67;;;;;;;;;;5113787;27;20042;-81
2023/12/15 09:59:42;;;;;;;82.75;20.00;;;;;;;;;;5100079;27;20060;-81
2023/12/15 10:02:08;;;;;;;88.57;22.77;;;;;;;;;;5096138;27;20606;-81
2023/12/15 10:04:34;;;;;;;75.40;18.73;;;;;;;;;;5098586;27;20122;-81
2023/12/15 10:07:01;;;;;;;64.75;18.08;;;;;;;;;;5098113;27;20054;-80
2023/12/15 10:09:27;;;;;;;87.88;21.90;;;;;;;;;;5096496;27;20126;-81
2023/12/15 10:11:54;;;;;;;76.40;19.83;;;;;;;;;;5098902;27;21046;-81
2023/12/15 10:14:20;;;;;;;75.97;18.63;;;;;;;;;;5115896;27;20043;-81
2023/12/15 10:16:46;;;;;;;62.95;15.70;;;7.30;99.90;;;;;;5114836;27;20311;-81
2023/12/15 10:19:12;;;;;;;66.78;19.70;;;;;;;;;;5107786;27;20513;-81
2023/12/15 10:21:39;;;;;;;63.35;15.30;;;;;;;;;;5101576;27;20035;-80
2023/12/15 10:24:18;;;;;;;63.30;15.40;;;;;;;;;;5098016;27;20049;-80
2023/12/15 10:26:45;;;;;;;72.68;16.40;;;;;;;;;;5100441;27;20790;-80
2023/12/15 10:29:11;;;;;;;83.07;14.55;;;;;;;;;;5117798;27;20043;-80
2023/12/15 10:31:41;;;;;;;56.92;16.50;;;;;;;;;;5122938;27;20050;-80
2023/12/15 10:34:07;;;;;;;97.90;18.42;;;;;;;;;;5103154;27;20049;-81
2023/12/15 10:36:34;;;;;;;70.85;15.10;;;;;;;;;;5128927;27;20115;-79
2023/12/15 10:39:02;;;;;;;62.33;14.43;;;;;;;;;;5111321;27;20039;-81
2023/12/15 10:41:31;;;;;;;58.65;14.15;;;;;;;;;;5129286;27;20034;-80
2023/12/15 10:44:01;;;;;;;58.70;12.70;;;;;;;;;;5111984;27;20051;-79
2023/12/15 10:46:31;;;;;;;52.28;12.90;;;;;;;;;;5128624;27;20053;-80
2023/12/15 10:48:59;;;;;;;58.15;11.90;;;7.60;99.90;;;;;;5133281;27;20124;-79
2023/12/15 10:51:26;;;;;;;62.45;13.25;;;;;;;;;;5149219;27;20034;-80
2023/12/15 10:53:56;;;;;;;67.30;12.75;;;;;;;;;;5133782;27;20042;-80
2023/12/15 10:56:26;;;;;;;48.60;11.07;;;;;;;;;;5112374;27;20047;-80
2023/12/15 10:58:52;;;;;;;62.53;12.35;;;;;;;;;;5127101;27;20043;-80
2023/12/15 11:01:19;;;;;;;69.65;14.23;;;;;;;;;;5108418;27;20033;-81
2023/12/15 11:03:45;;;;;;;57.58;12.43;;;;;;;;;;5115903;27;20487;-81
2023/12/15 11:06:11;;;;;;;57.38;12.32;;;;;;;;;;5098232;27;20134;-81
2023/12/15 11:08:37;;;;;;;64.97;11.80;;;;;;;;;;5135189;27;20054;-80
2023/12/15 11:11:07;;;;;;;53.13;11.63;;;7.70;99.90;;;;;;5101634;27;20034;-81
2023/12/15 11:13:50;;;;;;;49.30;10.73;;;7.70;99.90;;;;;;5102700;27;20119;-81
2023/12/15 11:16:23;;;;;;;67.78;16.63;;;7.70;99.90;;;;;;5108665;27;20060;-80
2023/12/15 11:18:53;;;;;;;55.35;11.23;;;;;;;;;;5128646;27;20780;-81
2023/12/15 11:21:20;;;;;;;60.85;12.65;;;;;;;;;;5116579;27;20045;-81
2023/12/15 11:24:00;;;;;;;51.50;11.25;;;8.10;99.90;;;;;;5110586;27;20041;-80
2023/12/15 11:26:27;;;;;;;54.17;9.27;;;;;;;;;;5108518;27;20091;-80
2023/12/15 11:28:57;;;;;;;49.40;10.65;;;;;;;;;;5092080;27;20035;-80
2023/12/15 11:31:24;;;;;;;51.38;10.40;;;;;;;;;;5105632;27;20169;-81
2023/12/15 11:33:50;;;;;;;45.80;9.10;;;;;;;;;;5118480;27;20027;-80
2023/12/15 11:36:16;;;;;;;51.75;8.52;;;;;;;;;;5128217;27;20049;-81
2023/12/15 11:38:48;;;;;;;45.97;10.40;;;;;;;;;;5128425;27;20482;-80
2023/12/15 11:41:14;;;;;;;51.20;10.32;;;;;;;;;;5127073;27;20045;-79
2023/12/15 11:43:43;;;;;;;48.13;10.38;;;;;;;;;;5125255;27;20042;-80
2023/12/15 11:46:13;;;;;;;49.03;9.75;;;;;;;;;;5099062;27;20083;-80
2023/12/15 11:48:40;;;;;;;55.05;12.30;;;7.90;99.90;;;;;;5117280;27;20035;-80
2023/12/15 11:51:08;;;;;;;45.42;9.48;;;;;;;;;;5122157;27;20770;-80
2023/12/15 11:53:38;;;;;;;51.13;8.98;;;;;;;;;;5122106;27;20059;-80
2023/12/15 11:56:05;;;;;;;49.78;9.13;;;;;;;;;;5122551;27;20070;-79
2023/12/15 11:58:31;;;;;;;55.65;7.95;;;;;;;;;;5121363;27;20539;-80
2023/12/15 12:00:58;;;;;;;49.70;10.68;;;4.90;99.90;;;;;;5111314;27;20087;-80
2023/12/15 12:03:25;;;;;;;46.88;10.07;;;;;;;;;;5110313;27;20482;-80
2023/12/15 12:05:54;;;;;;;56.08;8.73;;;;;;;;;;5127600;27;20092;-79
2023/12/15 12:08:23;;;;;;;42.15;8.98;;;;;;;;;;5103308;27;20126;-80
2023/12/15 12:10:50;;;;;;;52.75;9.55;;;;;;;;;;5121355;27;20071;-80
2023/12/15 12:13:17;;;;;;;51.80;8.35;;;;;;;;;;5122506;27;20039;-79
2023/12/15 12:15:53;;;;;;;57.22;8.73;;;;;;;;;;5120080;27;20043;-80
2023/12/15 12:18:20;;;;;;;49.90;9.65;;;;;;;;;;5126854;27;20115;-81
2023/12/15 12:20:46;;;;;;;55.70;8.75;;;;;;;;;;5120334;27;20046;-80
2023/12/15 12:23:12;;;;;;;48.88;9.80;;;;;;;;;;5117958;27;20683;-80
2023/12/15 12:25:44;;;;;;;60.58;9.32;;;7.80;99.90;;;;;;5116011;27;20275;-79
2023/12/15 12:28:10;;;;;;;42.22;9.07;;;;;;;;;;5098035;27;20047;-80
2023/12/15 12:30:37;;;;;;;65.07;9.98;;;;;;;;;;5117864;27;20042;-79
2023/12/15 12:33:03;;;;;;;50.17;8.20;;;;;;;;;;5114590;27;20149;-81
2023/12/15 12:35:29;;;;;;;52.83;9.05;;;;;;;;;;5117742;27;20756;-79
2023/12/15 12:37:55;;;;;;;43.47;8.65;;;;;;;;;;5104604;27;20039;-80
2023/12/15 12:40:21;;;;;;;40.10;6.93;;;;;;;;;;5116752;27;20130;-80
2023/12/15 12:42:48;;;;;;;40.00;7.43;;;;;;;;;;5099595;27;20046;-80
2023/12/15 12:45:14;;;;;;;45.95;10.57;;;;;;;;;;5117090;27;20064;-80
2023/12/15 12:47:41;;;;;;;44.53;8.57;;;;;;;;;;5100381;27;20535;-80
2023/12/15 12:50:09;;;;;;;43.47;10.35;;;;;;;;;;5103954;27;20045;-81
2023/12/15 12:52:36;;;;;;;48.85;8.18;;;;;;;;;;5105316;27;20041;-81
2023/12/15 12:55:06;;;;;;;47.42;7.13;;;;;;;;;;5103748;27;20034;-79
2023/12/15 12:57:35;;;;;;;49.33;8.30;;;;;;;;;;5103698;27;20043;-80
2023/12/15 13:00:06;;;;;;;41.90;10.02;;;;;;;;;;5119305;27;20050;-79
2023/12/15 13:02:33;;;;;;;48.63;7.38;;;;;;;;;;5117764;27;20034;-81
2023/12/15 13:04:59;;;;;;;48.60;8.38;;;;;;;;;;5117368;27;20498;-80
2023/12/15 13:07:26;;;;;;;38.28;9.07;;;;;;;;;;5099070;27;20035;-81
2023/12/15 13:09:52;;;;;;;49.75;8.95;;;;;;;;;;5115754;27;20090;-80
2023/12/15 13:12:18;;;;;;;41.75;7.72;;;;;;;;;;5100449;27;20062;-81
2023/12/15 13:14:48;;;;;;;46.13;9.15;;;;;;;;;;5099166;27;20039;-80
2023/12/15 13:17:14;;;;;;;48.03;7.68;;;;;;;;;;5115784;27;20043;-80
2023/12/15 13:19:40;;;;;;;56.33;10.18;;;;;;;;;;5098879;27;20034;-80
2023/12/15 13:22:06;;;;;;;54.17;10.05;;;;;;;;;;5098857;27;20569;-80
2023/12/15 13:24:33;;;;;;;44.58;7.63;;;;;;;;;;5099383;27;20450;-80
2023/12/15 13:26:59;;;;;;;45.97;7.95;;;;;;;;;;5097224;27;20514;-80
2023/12/15 13:29:25;;;;;;;37.78;7.60;;;;;;;;;;5115727;27;20098;-81
2023/12/15 13:31:52;;;;;;;45.17;9.13;;;;;;;;;;5099474;27;20057;-80
2023/12/15 13:34:21;;;;;;;42.70;6.95;;;;;;;;;;5097203;27;20053;-80
2023/12/15 13:36:47;;;;;;;43.75;7.50;;;;;;;;;;5115133;27;20043;-80
2023/12/15 13:39:15;;;;;;;37.88;7.55;;;;;;;;;;5121779;27;20069;-80
2023/12/15 13:41:42;;;;;;;44.55;7.40;;;;;;;;;;5108889;27;20050;-80
2023/12/15 13:44:08;;;;;;;44.70;6.13;;;;;;;;;;5108318;27;20111;-80
2023/12/15 13:46:34;;;;;;;46.35;8.15;;;;;;;;;;5100916;27;20026;-80
2023/12/15 13:49:00;;;;;;;36.40;6.68;;;;;;;;;;5121140;27;20574;-80
2023/12/15 13:51:26;;;;;;;32.20;7.53;;;;;;;;;;5116483;27;20042;-80
2023/12/15 13:53:54;;;;;;;36.38;7.78;;;;;;;;;;5113773;27;20035;-80
2023/12/15 13:56:23;;;;;;;46.05;7.60;;;;;;;;;;5114430;27;20046;-80
2023/12/15 13:58:49;;;;;;;45.25;6.63;;;;;;;;;;5098208;27;20034;-80
2023/12/15 14:01:15;;;;;;;31.38;7.03;;;;;;;;;;5116579;27;20042;-81